WetterOnline ( http://www.wetteronline.de )

Wetter aktuell Freudenstadt (in 700m)

Aktuelles Wetter: Freudenstadt (801m)

6-stündlich | Neueste Meldungen
Ortszeit Temperatur Wetter
Mi, 24.10. 2:00 7.8° C wolkenlos
Di, 23.10. 20:00 9.5° C bewölkt
Di, 23.10. 14:00 8.1° C bedeckt
Di, 23.10. 8:00 5.5° C bedeckt
Di, 23.10. 2:00 6.8° C bedeckt
Mo, 22.10. 20:00 8.8° C bedeckt
Mo, 22.10. 14:00 10.3° C wolkig
Mo, 22.10. 8:00 3.2° C wolkenlos
Ortszeit Temperatur Wetter
Mi, 24.10. 3:30 7.5° C bewölkt
Mi, 24.10. 3:20 7.5° C bewölkt
Mi, 24.10. 3:10 7.4° C bewölkt
Mi, 24.10. 3:00 7.4° C wolkig
Mi, 24.10. 2:50 7.4° C wolkig
Mi, 24.10. 2:40 7.4° C leicht bewölkt
Mi, 24.10. 2:30 7.4° C fast wolkenlos
Mi, 24.10. 2:00 7.8° C wolkenlos
Mi, 24.10. 1:30 7.7° C leicht bewölkt
Mi, 24.10. 1:00 7.9° C wolkig
Mi, 24.10. 0:30 8.1° C wolkig
Ortszeit Relative Feuchte Sichtweite
Mi, 24.10. 2:00 72% 55 km
Di, 23.10. 20:00 55% 45 km
Di, 23.10. 14:00 66% 45 km
Di, 23.10. 8:00 98% 4.4 km
Di, 23.10. 2:00 95% 4.0 km
Mo, 22.10. 20:00 63% 45 km
Mo, 22.10. 14:00 54% 45 km
Mo, 22.10. 8:00 77% 40 km
Ortszeit Relative Feuchte Sichtweite
Mi, 24.10. 3:30 75% 50 km
Mi, 24.10. 3:20 75% -
Mi, 24.10. 3:10 76% -
Mi, 24.10. 3:00 75% 50 km
Mi, 24.10. 2:50 75% -
Mi, 24.10. 2:40 75% -
Mi, 24.10. 2:30 75% 50 km
Mi, 24.10. 2:00 72% 55 km
Mi, 24.10. 1:30 72% 55 km
Mi, 24.10. 1:00 70% 60 km
Mi, 24.10. 0:30 65% 65 km
Ortszeit Niederschlagsmenge Niederschlagsart
Mi, 24.10. 2:00 0.0 l/m2 in 6 Std. -
Di, 23.10. 20:00 0.0 l/m2 in 12 Std. -
Di, 23.10. 14:00 0.0 l/m2 in 6 Std. -
Di, 23.10. 8:00 0.0 l/m2 in 12 Std. -
Di, 23.10. 2:00 0.0 l/m2 in 6 Std. -
Mo, 22.10. 20:00 0.1 l/m2 in 12 Std. Niederschlag
Mo, 22.10. 14:00 0.0 l/m2 in 6 Std. -
Mo, 22.10. 8:00 0.0 l/m2 in 12 Std. -
Ortszeit Niederschlagsmenge Niederschlagsart
Mi, 24.10. 3:30 0.0 l/m2 in 1 Std. -
Mi, 24.10. 3:20 keine Meldung -
Mi, 24.10. 3:10 keine Meldung -
Mi, 24.10. 3:00 0.0 l/m2 in 1 Std. -
Mi, 24.10. 2:50 keine Meldung -
Mi, 24.10. 2:40 keine Meldung -
Mi, 24.10. 2:30 0.0 l/m2 in 1 Std. -
Mi, 24.10. 2:00 0.0 l/m2 in 1 Std. -
Mi, 24.10. 1:30 0.0 l/m2 in 1 Std. -
Mi, 24.10. 1:00 0.0 l/m2 in 1 Std. -
Mi, 24.10. 0:30 0.0 l/m2 in 1 Std. -
Ortszeit Stärke Spitze Richtung
km/h Bft. km/h Grad Sektor
Mi, 24.10. 2:00 36 5 61 280° W
Di, 23.10. 20:00 35 5 56 270° W
Di, 23.10. 14:00 26 4 46 280° W
Di, 23.10. 8:00 13 3 20 240° SW
Di, 23.10. 2:00 7 2 29 50° NO
Mo, 22.10. 20:00 17 3 26 20° N
Mo, 22.10. 14:00 11 2 29 30° NO
Mo, 22.10. 8:00 9 2 19 60° NO
Ortszeit Stärke Spitze Richtung
km/h Bft. km/h Grad Sektor
Mi, 24.10. 3:30 43 6 61 280° W
Mi, 24.10. 3:20 43 6 - 280° W
Mi, 24.10. 3:10 36 5 - 280° W
Mi, 24.10. 3:00 31 5 56 280° W
Mi, 24.10. 2:50 31 5 - 280° W
Mi, 24.10. 2:40 30 5 - 280° W
Mi, 24.10. 2:30 31 5 56 280° W
Mi, 24.10. 2:00 36 5 58 280° W
Mi, 24.10. 1:30 32 5 50 280° W
Mi, 24.10. 1:00 33 5 61 280° W
Mi, 24.10. 0:30 29 5 47 270° W
Ortszeit Untergrenze Bedeckung Gattung
total tief tief mittel hoch
Mi, 24.10. 2:00 - 0/8 0/8 - - -
Di, 23.10. 20:00 1500 m 8/8 5/8 - - -
Di, 23.10. 14:00 3600 m 8/8 8/8 - - -
Di, 23.10. 8:00 60 m 8/8 8/8 - - -
Di, 23.10. 2:00 120 m 8/8 8/8 - - -
Mo, 22.10. 20:00 1800 m 8/8 8/8 - - -
Mo, 22.10. 14:00 1800 m 7/8 7/8 - - -
Mo, 22.10. 8:00 - 0/8 0/8 - - -
Ortszeit Bedeckungsgrad in Achtel und Wolkenuntergrenze
Mi, 24.10. 3:30 7(540m) 7(2400m) 8(8400m)
Mi, 24.10. 3:20 7(540m) 7(2400m) 8(8400m)
Mi, 24.10. 3:10 7(570m) 7(8400m)
Mi, 24.10. 3:00 5(510m) 7(8400m)
Mi, 24.10. 2:50 5(510m)
Mi, 24.10. 2:40 4(480m)
Mi, 24.10. 2:30 2(480m)
Mi, 24.10. 2:00 keine Wolken
Mi, 24.10. 1:30 1(600m) 3(3900m)
Mi, 24.10. 1:00 1(570m) 6(3900m) 7(9000m)
Mi, 24.10. 0:30 1(570m) 7(3600m) 8(8400m)
Ortszeit Stationsdruck (hPa) Tendenz (hPa in 3 Std.)
Mi, 24.10. 2:00 931 - 1,6
Di, 23.10. 20:00 931 - 0,5
Di, 23.10. 14:00 934 - 1,3
Di, 23.10. 8:00 934 - 2,1
Di, 23.10. 2:00 937 - 0,1
Mo, 22.10. 20:00 936 + 1,6
Mo, 22.10. 14:00 934 + 0,3
Mo, 22.10. 8:00 932 + 0,8
Ortszeit Stationsdruck (hPa) Tendenz (hPa in 3 Std.)
Mi, 24.10. 3:30 931 - 0,9
Mi, 24.10. 3:20 931 keine Meldung
Mi, 24.10. 3:10 931 keine Meldung
Mi, 24.10. 3:00 931 - 1,0
Mi, 24.10. 2:50 931 keine Meldung
Mi, 24.10. 2:40 931 keine Meldung
Mi, 24.10. 2:30 931 - 1,5
Mi, 24.10. 2:00 931 - 1,6
Mi, 24.10. 1:30 932 - 0,6
Mi, 24.10. 1:00 932 - 0,2
Mi, 24.10. 0:30 932 0,0
Ortszeit Schneehöhe (cm)
Mi, 24.10. 2:00 0
Di, 23.10. 20:00 0
Di, 23.10. 14:00 0
Di, 23.10. 8:00 0
Di, 23.10. 2:00 0
Mo, 22.10. 20:00 0
Mo, 22.10. 14:00 0
Mo, 22.10. 8:00 0
Ortszeit Schneehöhe (cm)
Mi, 24.10. 3:30 0
Mi, 24.10. 3:20 0
Mi, 24.10. 3:10 0
Mi, 24.10. 3:00 0
Mi, 24.10. 2:50 0
Mi, 24.10. 2:40 0
Mi, 24.10. 2:30 0
Mi, 24.10. 2:00 0
Mi, 24.10. 1:30 0
Mi, 24.10. 1:00 0
Mi, 24.10. 0:30 0
Link zu dieser Seite / Seite empfehlen

Das Wetter in ...